createdAt,value
2023-05-03T00:00:26.711Z,7.70
2023-05-03T00:02:57.571Z,7.37
2023-05-03T00:05:28.132Z,8.57
2023-05-03T00:07:57.497Z,7.27
2023-05-03T00:10:29.570Z,7.10
2023-05-03T00:12:58.653Z,6.17
2023-05-03T00:15:28.988Z,6.83
2023-05-03T00:18:02.891Z,6.77
2023-05-03T00:20:37.451Z,5.90
2023-05-03T00:23:10.327Z,8.00
2023-05-03T00:25:54.483Z,6.90
2023-05-03T00:28:33.114Z,6.97
2023-05-03T00:31:24.832Z,7.80
2023-05-03T00:34:58.181Z,7.10
2023-05-03T00:47:14.784Z,7.07
2023-05-03T00:49:43.258Z,11.17
2023-05-03T00:52:12.118Z,11.37
2023-05-03T00:54:44.221Z,11.23
2023-05-03T00:57:12.672Z,7.67
2023-05-03T00:59:41.014Z,7.27
2023-05-03T01:02:09.597Z,7.37
2023-05-03T01:04:42.402Z,7.90
2023-05-03T01:07:20.259Z,6.87
2023-05-03T01:09:57.720Z,7.70
2023-05-03T01:12:36.067Z,8.03
2023-05-03T01:15:13.436Z,7.50
2023-05-03T01:17:48.954Z,6.40
2023-05-03T01:20:24.883Z,7.27
2023-05-03T01:23:06.506Z,7.23
2023-05-03T01:25:36.270Z,9.40
2023-05-03T01:28:04.604Z,8.27
2023-05-03T01:30:34.057Z,8.60
2023-05-03T01:33:06.456Z,7.33
2023-05-03T01:35:41.590Z,6.73
2023-05-03T01:38:10.475Z,7.63
2023-05-03T01:40:46.342Z,6.43
2023-05-03T01:43:17.348Z,7.37
2023-05-03T01:45:45.947Z,6.93
2023-05-03T01:48:17.774Z,7.67
2023-05-03T01:50:46.996Z,8.83
2023-05-03T01:53:15.472Z,8.80
2023-05-03T01:55:45.619Z,7.50
2023-05-03T01:58:13.927Z,7.10
2023-05-03T02:00:43.198Z,6.93
2023-05-03T02:03:12.440Z,7.60
2023-05-03T02:05:41.416Z,7.17
2023-05-03T02:08:09.948Z,7.73
2023-05-03T02:10:38.129Z,6.90
2023-05-03T02:13:08.188Z,6.90
2023-05-03T02:15:36.414Z,11.57
2023-05-03T02:18:05.725Z,6.77
2023-05-03T02:20:37.690Z,8.10
2023-05-03T02:23:05.942Z,8.17
2023-05-03T02:25:34.153Z,8.33
2023-05-03T02:28:02.353Z,8.43
2023-05-03T02:30:32.027Z,8.67
2023-05-03T02:33:00.309Z,7.87
2023-05-03T02:35:29.383Z,7.73
2023-05-03T02:37:57.680Z,9.13
2023-05-03T02:40:26.330Z,9.07
2023-05-03T02:42:55.360Z,8.87
2023-05-03T02:45:27.956Z,8.20
2023-05-03T02:47:57.611Z,7.53
2023-05-03T02:50:27.679Z,8.90
2023-05-03T02:52:56.037Z,9.60
2023-05-03T02:55:24.479Z,9.97
2023-05-03T02:57:52.693Z,8.23
2023-05-03T03:00:22.006Z,9.20
2023-05-03T03:02:50.936Z,7.93
2023-05-03T03:05:20.993Z,8.70
2023-05-03T03:07:51.682Z,9.20
2023-05-03T03:10:20.446Z,8.53
2023-05-03T03:12:50.053Z,9.10
2023-05-03T03:15:27.664Z,8.60
2023-05-03T03:17:57.864Z,10.47
2023-05-03T03:20:28.795Z,9.13
2023-05-03T03:22:57.110Z,9.43
2023-05-03T03:25:25.389Z,8.70
2023-05-03T03:27:56.393Z,8.47
2023-05-03T03:30:24.614Z,8.13
2023-05-03T03:33:02.549Z,12.97
2023-05-03T03:35:39.668Z,9.03
2023-05-03T03:38:08.813Z,8.90
2023-05-03T03:40:41.526Z,8.40
2023-05-03T03:43:10.162Z,9.10
2023-05-03T03:45:39.268Z,8.40
2023-05-03T03:48:08.037Z,9.23
2023-05-03T03:50:37.649Z,7.13
2023-05-03T03:53:09.303Z,8.00
2023-05-03T03:55:38.835Z,9.27
2023-05-03T03:58:08.352Z,8.23
2023-05-03T04:00:37.328Z,8.00
2023-05-03T04:03:12.542Z,8.37
2023-05-03T04:05:41.246Z,7.80
2023-05-03T04:08:12.233Z,8.33
2023-05-03T04:10:41.857Z,8.40
2023-05-03T04:13:13.223Z,7.27
2023-05-03T04:15:41.960Z,8.10
2023-05-03T04:18:11.319Z,7.97
2023-05-03T04:20:41.781Z,8.60
2023-05-03T04:23:12.843Z,8.03
2023-05-03T04:25:48.704Z,8.37
2023-05-03T04:28:20.501Z,7.50
2023-05-03T04:30:51.779Z,8.37
2023-05-03T04:33:50.358Z,9.47
2023-05-03T04:36:35.731Z,8.30
2023-05-03T04:39:38.982Z,8.53
2023-05-03T04:43:06.138Z,8.53
2023-05-03T04:46:05.888Z,7.07
2023-05-03T04:48:36.966Z,9.50
2023-05-03T04:52:18.475Z,9.17
2023-05-03T04:55:12.452Z,9.23
2023-05-03T04:57:57.056Z,11.13
2023-05-03T05:01:25.191Z,7.93
2023-05-03T05:03:54.588Z,8.47
2023-05-03T05:06:28.464Z,9.90
2023-05-03T05:08:57.219Z,9.60
2023-05-03T05:11:27.347Z,9.57
2023-05-03T05:13:56.491Z,9.43
2023-05-03T05:16:24.895Z,10.33
2023-05-03T05:18:55.106Z,9.63
2023-05-03T05:21:26.978Z,9.60
2023-05-03T05:23:55.344Z,9.20
2023-05-03T05:26:23.797Z,9.90
2023-05-03T05:28:53.404Z,8.67
2023-05-03T05:31:22.011Z,9.07
2023-05-03T05:33:50.401Z,9.05
2023-05-03T05:36:19.688Z,9.77
2023-05-03T05:38:48.806Z,10.73
2023-05-03T05:41:17.052Z,9.95
2023-05-03T05:43:46.746Z,11.10
2023-05-03T05:46:21.250Z,10.95
2023-05-03T05:48:53.629Z,10.32
2023-05-03T05:51:23.575Z,10.18
2023-05-03T05:53:51.967Z,10.02
2023-05-03T05:56:22.097Z,9.10
2023-05-03T05:58:51.573Z,8.63
2023-05-03T06:01:21.436Z,8.80
2023-05-03T06:03:49.641Z,8.10
2023-05-03T06:06:18.062Z,8.02
2023-05-03T06:08:49.743Z,7.28
2023-05-03T06:11:18.246Z,7.10
2023-05-03T06:13:47.129Z,7.22
2023-05-03T06:16:18.339Z,7.85
2023-05-03T06:18:47.969Z,7.18
2023-05-03T06:21:16.279Z,7.32
2023-05-03T06:23:44.697Z,7.22
2023-05-03T06:26:13.184Z,6.95
2023-05-03T06:28:41.522Z,7.75
2023-05-03T06:31:09.933Z,6.85
2023-05-03T06:33:38.660Z,6.15
2023-05-03T06:36:09.297Z,6.20
2023-05-03T06:38:38.950Z,5.20
2023-05-03T06:41:07.131Z,5.20
2023-05-03T06:43:35.868Z,5.05
2023-05-03T06:46:07.077Z,5.63
2023-05-03T06:48:35.432Z,5.22
2023-05-03T06:51:05.041Z,4.97
2023-05-03T06:53:34.565Z,4.65
2023-05-03T06:56:04.056Z,4.65
2023-05-03T06:58:32.284Z,5.32
2023-05-03T07:01:00.492Z,4.47
2023-05-03T07:03:28.814Z,4.38
2023-05-03T07:05:57.107Z,4.55
2023-05-03T07:08:25.320Z,3.90
2023-05-03T07:10:55.064Z,4.05
2023-05-03T07:13:23.269Z,4.10
2023-05-03T07:15:52.746Z,3.78
2023-05-03T07:18:20.961Z,4.20
2023-05-03T07:20:49.586Z,4.28
2023-05-03T07:23:17.701Z,4.00
2023-05-03T07:25:46.255Z,4.03
2023-05-03T07:28:17.503Z,4.05
2023-05-03T07:30:47.218Z,4.25
2023-05-03T07:33:15.721Z,4.18
2023-05-03T07:35:44.145Z,4.63
2023-05-03T07:38:12.537Z,3.90
2023-05-03T07:40:41.679Z,4.15
2023-05-03T07:43:10.575Z,4.32
2023-05-03T07:45:40.613Z,4.38
2023-05-03T07:48:08.890Z,4.35
2023-05-03T07:50:37.270Z,3.90
2023-05-03T07:53:05.678Z,4.45
2023-05-03T07:55:36.510Z,3.88
2023-05-03T07:58:04.852Z,3.63
2023-05-03T08:00:33.380Z,3.47
2023-05-03T08:03:04.665Z,4.03
2023-05-03T08:05:36.077Z,4.00
2023-05-03T08:08:05.596Z,3.88
2023-05-03T08:10:37.798Z,4.18
2023-05-03T08:13:07.033Z,3.95
2023-05-03T08:15:35.620Z,4.20
2023-05-03T08:18:05.541Z,3.88
2023-05-03T08:20:36.759Z,3.95
2023-05-03T08:23:04.988Z,3.65
2023-05-03T08:25:33.267Z,3.85
2023-05-03T08:28:01.762Z,3.97
2023-05-03T08:30:30.371Z,3.83
2023-05-03T08:32:58.752Z,4.22
2023-05-03T08:35:28.417Z,4.13
2023-05-03T08:37:56.683Z,3.70
2023-05-03T08:40:27.984Z,3.67
2023-05-03T08:42:57.679Z,3.10
2023-05-03T08:45:26.757Z,3.95
2023-05-03T08:47:55.926Z,4.10
2023-05-03T08:50:25.565Z,3.75
2023-05-03T08:52:55.207Z,3.58
2023-05-03T08:55:24.136Z,3.47
2023-05-03T08:57:52.450Z,3.53
2023-05-03T09:00:28.108Z,3.28
2023-05-03T09:02:56.441Z,4.03
2023-05-03T09:05:36.025Z,3.80
2023-05-03T09:08:09.398Z,3.17
2023-05-03T09:10:55.265Z,4.38
2023-05-03T09:13:32.198Z,3.92
2023-05-03T09:16:02.326Z,3.40
2023-05-03T09:18:30.831Z,3.63
2023-05-03T09:21:07.439Z,3.88
2023-05-03T09:23:44.202Z,3.85
2023-05-03T09:29:29.593Z,4.03
2023-05-03T09:32:02.738Z,3.50
2023-05-03T09:34:31.712Z,3.20
2023-05-03T09:37:05.163Z,3.13
2023-05-03T10:17:46.472Z,3.13
2023-05-03T10:20:22.973Z,3.10
2023-05-03T10:23:11.820Z,3.63
2023-05-03T10:26:01.352Z,3.20
2023-05-03T10:28:29.625Z,2.50
2023-05-03T10:30:57.916Z,2.10
2023-05-03T10:33:35.559Z,2.15
2023-05-03T10:36:10.510Z,2.05
2023-05-03T10:38:39.030Z,2.35
2023-05-03T10:41:07.827Z,1.92
2023-05-03T10:43:46.140Z,2.30
2023-05-03T10:46:36.463Z,2.35
2023-05-03T10:49:20.456Z,2.25
2023-05-03T10:51:48.789Z,2.17
2023-05-03T10:54:19.422Z,2.45
2023-05-03T10:56:56.348Z,2.08
2023-05-03T10:59:25.855Z,2.30
2023-05-03T11:01:54.545Z,1.90
2023-05-03T11:04:35.138Z,2.67
2023-05-03T11:07:04.496Z,1.92
2023-05-03T11:09:34.505Z,1.95
2023-05-03T11:12:08.516Z,2.28
2023-05-03T11:14:37.416Z,1.92
2023-05-03T11:17:05.835Z,1.58
2023-05-03T11:19:35.914Z,2.05
2023-05-03T11:22:04.106Z,1.83
2023-05-03T11:24:32.290Z,1.95
2023-05-03T11:27:01.030Z,2.05
2023-05-03T11:29:38.067Z,2.22
2023-05-03T11:32:09.505Z,1.90
2023-05-03T11:34:40.638Z,2.50
2023-05-03T11:37:10.937Z,2.10
2023-05-03T11:39:39.355Z,1.88
2023-05-03T11:42:08.322Z,2.22
2023-05-03T11:44:37.708Z,1.90
2023-05-03T11:47:06.869Z,1.73
2023-05-03T11:49:35.761Z,2.13
2023-05-03T11:52:06.078Z,1.85
2023-05-03T11:54:34.659Z,1.80
2023-05-03T11:57:14.341Z,1.65
2023-05-03T11:59:43.936Z,1.60
2023-05-03T12:02:14.556Z,1.80
2023-05-03T12:04:45.538Z,1.45
2023-05-03T12:07:19.323Z,1.60
2023-05-03T12:10:05.754Z,1.77
2023-05-03T12:12:41.842Z,2.00
2023-05-03T12:15:13.188Z,1.95
2023-05-03T12:17:45.542Z,1.85
2023-05-03T12:22:56.520Z,1.83
2023-05-03T12:25:28.243Z,2.28
2023-05-03T12:28:18.895Z,1.80
2023-05-03T12:30:48.947Z,1.65
2023-05-03T12:33:21.874Z,1.30
2023-05-03T12:35:53.184Z,1.65
2023-05-03T12:38:25.400Z,1.55
2023-05-03T12:40:54.812Z,1.63
2023-05-03T12:43:23.602Z,1.55
2023-05-03T12:46:07.519Z,1.60
2023-05-03T12:48:40.355Z,1.83
2023-05-03T12:51:19.408Z,1.80
2023-05-03T12:53:55.168Z,1.60
2023-05-03T12:56:25.193Z,1.65
2023-05-03T12:59:19.992Z,1.52
2023-05-03T13:06:46.737Z,1.75
2023-05-03T13:09:21.478Z,1.65
2023-05-03T13:11:51.072Z,1.50
2023-05-03T13:14:19.354Z,1.88
2023-05-03T13:16:47.794Z,1.60
2023-05-03T13:19:17.192Z,1.60
2023-05-03T13:21:47.636Z,1.77
2023-05-03T13:24:17.569Z,1.83
2023-05-03T13:26:46.516Z,1.60
2023-05-03T13:29:14.803Z,1.25
2023-05-03T13:31:43.055Z,1.40
2023-05-03T13:34:12.105Z,2.08
2023-05-03T13:36:40.451Z,1.50
2023-05-03T13:39:09.787Z,1.73
2023-05-03T13:41:40.593Z,1.23
2023-05-03T13:44:12.129Z,1.38
2023-05-03T13:46:41.472Z,1.63
2023-05-03T13:49:10.143Z,1.52
2023-05-03T13:51:38.768Z,1.40
2023-05-03T13:54:07.907Z,1.23
2023-05-03T13:56:36.612Z,1.40
2023-05-03T13:59:09.186Z,1.50
2023-05-03T14:01:37.892Z,1.13
2023-05-03T14:04:06.646Z,1.80
2023-05-03T14:06:35.010Z,1.15
2023-05-03T14:09:04.152Z,1.27
2023-05-03T14:11:32.471Z,1.10
2023-05-03T14:14:00.938Z,1.60
2023-05-03T14:16:40.953Z,1.52
2023-05-03T14:19:11.670Z,1.40
2023-05-03T14:21:40.332Z,1.30
2023-05-03T14:24:09.398Z,1.55
2023-05-03T14:26:38.283Z,1.40
2023-05-03T14:29:06.852Z,1.10
2023-05-03T14:31:36.828Z,1.50
2023-05-03T14:34:05.580Z,1.30
2023-05-03T14:36:36.158Z,1.67
2023-05-03T14:39:05.532Z,1.45
2023-05-03T14:41:34.447Z,1.35
2023-05-03T14:44:02.730Z,1.63
2023-05-03T14:46:31.396Z,1.23
2023-05-03T14:49:01.672Z,1.10
2023-05-03T14:51:30.084Z,1.33
2023-05-03T14:53:58.363Z,1.08
2023-05-03T14:56:27.294Z,1.38
2023-05-03T14:58:55.801Z,1.63
2023-05-03T15:01:24.115Z,1.42
2023-05-03T15:03:53.396Z,1.20
2023-05-03T15:06:28.703Z,1.30
2023-05-03T15:08:58.465Z,1.30
2023-05-03T15:11:27.414Z,1.35
2023-05-03T15:13:55.881Z,1.10
2023-05-03T15:16:24.735Z,1.50
2023-05-03T15:18:53.070Z,1.00
2023-05-03T15:21:22.275Z,1.25
2023-05-03T15:23:51.975Z,1.35
2023-05-03T15:26:22.614Z,1.20
2023-05-03T15:28:52.291Z,1.50
2023-05-03T15:31:20.452Z,1.05
2023-05-03T15:33:48.698Z,1.00
2023-05-03T15:36:17.436Z,1.10
2023-05-03T15:38:46.734Z,1.30
2023-05-03T15:41:16.499Z,1.20
2023-05-03T15:43:46.381Z,1.45
2023-05-03T15:46:14.709Z,1.10
2023-05-03T15:48:42.997Z,1.15
2023-05-03T15:51:11.257Z,1.17
2023-05-03T15:53:41.339Z,1.23
2023-05-03T15:56:11.765Z,1.08
2023-05-03T15:58:41.792Z,1.15
2023-05-03T16:01:10.593Z,1.25
2023-05-03T16:06:42.025Z,2.13
2023-05-03T16:09:12.380Z,1.63
2023-05-03T16:11:40.535Z,1.50
2023-05-03T16:14:10.591Z,1.40
2023-05-03T16:16:40.285Z,1.25
2023-05-03T16:19:08.833Z,1.67
2023-05-03T16:21:37.075Z,1.15
2023-05-03T16:24:05.781Z,1.10
2023-05-03T16:26:34.565Z,1.40
2023-05-03T16:29:02.764Z,1.30
2023-05-03T16:31:33.056Z,1.35
2023-05-03T16:34:02.997Z,1.70
2023-05-03T16:36:32.687Z,1.33
2023-05-03T16:39:00.855Z,1.25
2023-05-03T16:41:29.004Z,1.50
2023-05-03T16:43:57.347Z,1.17
2023-05-03T16:46:25.524Z,1.63
2023-05-03T16:48:55.171Z,1.52
2023-05-03T16:51:23.362Z,1.90
2023-05-03T16:53:52.917Z,1.63
2023-05-03T16:56:21.647Z,2.00
2023-05-03T16:58:49.852Z,1.50
2023-05-03T17:01:18.226Z,1.33
2023-05-03T17:03:46.647Z,1.80
2023-05-03T17:06:17.464Z,1.60
2023-05-03T17:08:46.003Z,1.45
2023-05-03T17:11:15.291Z,1.90
2023-05-03T17:13:44.140Z,1.70
2023-05-03T17:16:15.459Z,1.90
2023-05-03T17:18:44.622Z,1.70
2023-05-03T17:21:13.002Z,2.00
2023-05-03T17:23:42.797Z,2.13
2023-05-03T17:26:12.237Z,1.67
2023-05-03T17:28:41.496Z,2.22
2023-05-03T17:31:09.722Z,1.92
2023-05-03T17:33:37.904Z,2.05
2023-05-03T17:36:06.697Z,1.88
2023-05-03T17:38:36.160Z,1.52
2023-05-03T17:41:08.306Z,1.80
2023-05-03T17:43:36.672Z,1.88
2023-05-03T17:46:10.867Z,1.65
2023-05-03T17:48:42.204Z,1.90
2023-05-03T17:51:12.444Z,1.88
2023-05-03T17:53:40.864Z,1.77
2023-05-03T17:56:15.508Z,1.48
2023-05-03T17:58:44.302Z,1.48
2023-05-03T18:01:13.590Z,2.08
2023-05-03T18:03:42.900Z,1.23
2023-05-03T18:06:13.126Z,1.85
2023-05-03T18:08:42.304Z,1.65
2023-05-03T18:11:10.507Z,1.90
2023-05-03T18:13:41.499Z,1.95
2023-05-03T18:16:10.197Z,1.50
2023-05-03T18:18:38.385Z,1.77
2023-05-03T18:21:06.814Z,1.70
2023-05-03T18:23:35.209Z,2.25
2023-05-03T18:26:03.861Z,2.25
2023-05-03T18:28:32.513Z,1.65
2023-05-03T18:31:02.909Z,2.10
2023-05-03T18:33:31.427Z,1.70
2023-05-03T18:35:59.592Z,1.40
2023-05-03T18:38:27.879Z,2.08
2023-05-03T18:40:56.276Z,1.63
2023-05-03T18:43:24.444Z,1.70
2023-05-03T18:45:52.950Z,1.40
2023-05-03T18:48:22.600Z,1.55
2023-05-03T18:50:50.720Z,1.58
2023-05-03T18:53:18.909Z,1.60
2023-05-03T18:55:47.176Z,1.50
2023-05-03T18:58:15.642Z,1.60
2023-05-03T19:00:43.822Z,1.80
2023-05-03T19:03:12.051Z,1.63
2023-05-03T19:05:41.587Z,1.80
2023-05-03T19:08:09.719Z,1.40
2023-05-03T19:10:37.846Z,1.52
2023-05-03T19:13:28.265Z,2.35
2023-05-03T19:15:56.458Z,1.60
2023-05-03T19:18:24.622Z,2.00
2023-05-03T19:20:55.039Z,1.40
2023-05-03T19:23:23.695Z,1.60
2023-05-03T19:25:51.903Z,2.20
2023-05-03T19:28:20.120Z,1.98
2023-05-03T19:30:51.566Z,1.65
2023-05-03T19:33:20.368Z,1.90
2023-05-03T19:35:48.902Z,2.00
2023-05-03T19:38:18.396Z,1.70
2023-05-03T19:40:57.262Z,1.58
2023-05-03T19:43:25.424Z,1.42
2023-05-03T19:45:53.696Z,1.70
2023-05-03T19:48:21.966Z,1.63
2023-05-03T19:50:50.072Z,1.50
2023-05-03T19:53:19.614Z,1.45
2023-05-03T19:55:59.698Z,1.55
2023-05-03T19:58:29.150Z,1.50
2023-05-03T20:00:59.593Z,2.05
2023-05-03T20:03:28.380Z,1.45
2023-05-03T20:05:56.634Z,1.70
2023-05-03T20:08:26.272Z,1.90
2023-05-03T20:10:55.601Z,2.00
2023-05-03T20:13:25.816Z,1.42
2023-05-03T20:15:54.178Z,1.60
2023-05-03T20:18:22.321Z,1.60
2023-05-03T20:20:50.600Z,1.45
2023-05-03T20:23:18.835Z,1.80
2023-05-03T20:25:48.294Z,1.70
2023-05-03T20:28:16.529Z,2.05
2023-05-03T20:30:44.790Z,1.85
2023-05-03T20:33:13.067Z,2.15
2023-05-03T20:35:41.296Z,1.50
2023-05-03T20:38:09.662Z,1.90
2023-05-03T20:40:37.839Z,2.17
2023-05-03T20:43:07.753Z,2.05
2023-05-03T20:45:35.894Z,2.80
2023-05-03T20:48:04.198Z,1.48
2023-05-03T20:50:32.424Z,2.08
2023-05-03T20:53:01.197Z,2.22
2023-05-03T20:55:29.606Z,2.00
2023-05-03T20:57:58.272Z,1.90
2023-05-03T21:00:28.877Z,1.92
2023-05-03T21:02:57.654Z,1.63
2023-05-03T21:05:25.826Z,1.95
2023-05-03T21:07:54.382Z,1.77
2023-05-03T21:10:22.543Z,1.88
2023-05-03T21:12:51.076Z,1.98
2023-05-03T21:15:19.333Z,2.80
2023-05-03T21:17:49.194Z,2.22
2023-05-03T21:20:17.568Z,2.05
2023-05-03T21:22:46.200Z,2.60
2023-05-03T21:25:14.591Z,2.40
2023-05-03T21:27:42.786Z,2.35
2023-05-03T21:30:13.589Z,2.20
2023-05-03T21:32:42.100Z,2.20
2023-05-03T21:35:12.158Z,2.47
2023-05-03T21:37:40.424Z,2.53
2023-05-03T21:40:09.814Z,2.25
2023-05-03T21:42:38.740Z,2.80
2023-05-03T21:45:08.083Z,2.35
2023-05-03T21:47:36.670Z,2.50
2023-05-03T21:50:06.827Z,2.42
2023-05-03T21:52:38.129Z,3.15
2023-05-03T21:55:07.225Z,2.13
2023-05-03T21:57:35.389Z,2.80
2023-05-03T22:00:04.946Z,2.30
2023-05-03T22:02:36.691Z,2.47
2023-05-03T22:05:05.825Z,2.13
2023-05-03T22:07:34.263Z,2.45
2023-05-03T22:10:03.899Z,2.58
2023-05-03T22:12:35.351Z,2.47
2023-05-03T22:15:04.080Z,2.55
2023-05-03T22:17:33.145Z,2.67
2023-05-03T22:20:01.876Z,2.63
2023-05-03T22:22:30.254Z,2.70
2023-05-03T22:25:00.810Z,2.55
2023-05-03T22:27:30.519Z,2.28
2023-05-03T22:29:58.719Z,2.50
2023-05-03T22:32:27.312Z,2.22
2023-05-03T22:34:55.460Z,2.67
2023-05-03T22:37:23.936Z,2.38
2023-05-03T22:39:52.118Z,2.70
2023-05-03T22:42:20.315Z,3.03
2023-05-03T22:44:49.809Z,2.20
2023-05-03T22:47:17.969Z,2.42
2023-05-03T22:49:46.142Z,2.10
2023-05-03T22:52:14.785Z,2.65
2023-05-03T22:54:43.090Z,2.50
2023-05-03T22:57:11.434Z,2.65
2023-05-03T22:59:39.609Z,2.37
2023-05-03T23:02:09.657Z,2.30
2023-05-03T23:04:37.806Z,2.40
2023-05-03T23:07:06.350Z,3.05
2023-05-03T23:09:34.492Z,2.83
2023-05-03T23:12:02.660Z,2.58
2023-05-03T23:14:30.974Z,2.88
2023-05-03T23:16:59.290Z,2.70
2023-05-03T23:19:28.872Z,2.57
2023-05-03T23:21:57.027Z,2.70
2023-05-03T23:24:26.651Z,2.60
2023-05-03T23:26:54.798Z,2.53
2023-05-03T23:29:23.290Z,2.77
2023-05-03T23:31:52.097Z,3.40
2023-05-03T23:34:20.912Z,3.10
2023-05-03T23:36:51.034Z,2.47
2023-05-03T23:39:19.277Z,2.60
2023-05-03T23:41:47.424Z,3.23
2023-05-03T23:44:15.552Z,2.50
2023-05-03T23:46:44.076Z,2.50
2023-05-03T23:49:12.591Z,2.50
2023-05-03T23:51:40.778Z,2.77
2023-05-03T23:54:10.375Z,2.30
2023-05-03T23:56:39.004Z,2.70
2023-05-03T23:59:07.295Z,2.57
